sensor_id;sensor_type;location;lat;lon;timestamp;temperature;humidity
4896;DHT22;2463;49.948;8.472;2023-02-01T00:00:15;6.70;99.90
4896;DHT22;2463;49.948;8.472;2023-02-01T00:02:42;6.70;99.90
4896;DHT22;2463;49.948;8.472;2023-02-01T00:05:10;6.70;99.90
4896;DHT22;2463;49.948;8.472;2023-02-01T00:07:37;6.70;99.90
4896;DHT22;2463;49.948;8.472;2023-02-01T00:10:05;6.70;99.90
4896;DHT22;2463;49.948;8.472;2023-02-01T00:12:32;6.60;99.90
4896;DHT22;2463;49.948;8.472;2023-02-01T00:14:59;6.60;99.90
4896;DHT22;2463;49.948;8.472;2023-02-01T00:17:25;6.60;99.90
4896;DHT22;2463;49.948;8.472;2023-02-01T00:19:52;6.60;99.90
4896;DHT22;2463;49.948;8.472;2023-02-01T00:22:19;6.60;99.90
4896;DHT22;2463;49.948;8.472;2023-02-01T00:24:45;6.60;99.90
4896;DHT22;2463;49.948;8.472;2023-02-01T00:27:12;6.60;99.90
4896;DHT22;2463;49.948;8.472;2023-02-01T00:29:44;6.60;99.90
4896;DHT22;2463;49.948;8.472;2023-02-01T00:32:12;6.60;99.90
4896;DHT22;2463;49.948;8.472;2023-02-01T00:34:39;6.50;99.90
4896;DHT22;2463;49.948;8.472;2023-02-01T00:37:06;6.60;99.90
4896;DHT22;2463;49.948;8.472;2023-02-01T00:39:32;6.60;99.90
4896;DHT22;2463;49.948;8.472;2023-02-01T00:42:00;6.60;99.90
4896;DHT22;2463;49.948;8.472;2023-02-01T00:44:27;6.50;99.90
4896;DHT22;2463;49.948;8.472;2023-02-01T00:46:54;6.50;99.90
4896;DHT22;2463;49.948;8.472;2023-02-01T00:49:20;6.50;99.90
4896;DHT22;2463;49.948;8.472;2023-02-01T00:51:48;6.50;99.90
4896;DHT22;2463;49.948;8.472;2023-02-01T00:54:14;6.40;99.90
4896;DHT22;2463;49.948;8.472;2023-02-01T00:56:41;6.40;99.90
4896;DHT22;2463;49.948;8.472;2023-02-01T00:59:11;6.40;99.90
4896;DHT22;2463;49.948;8.472;2023-02-01T01:01:38;6.30;99.90
4896;DHT22;2463;49.948;8.472;2023-02-01T01:04:05;6.40;99.90
4896;DHT22;2463;49.948;8.472;2023-02-01T01:06:33;6.40;99.90
4896;DHT22;2463;49.948;8.472;2023-02-01T01:09:03;6.40;99.90
4896;DHT22;2463;49.948;8.472;2023-02-01T01:11:32;6.40;99.90
4896;DHT22;2463;49.948;8.472;2023-02-01T01:14:00;6.40;99.90
4896;DHT22;2463;49.948;8.472;2023-02-01T01:16:29;6.50;99.90
4896;DHT22;2463;49.948;8.472;2023-02-01T01:18:56;6.50;99.90
4896;DHT22;2463;49.948;8.472;2023-02-01T01:21:23;6.50;99.90
4896;DHT22;2463;49.948;8.472;2023-02-01T01:23:50;6.60;99.90
4896;DHT22;2463;49.948;8.472;2023-02-01T01:26:22;6.60;99.90
4896;DHT22;2463;49.948;8.472;2023-02-01T01:28:50;6.60;99.90
4896;DHT22;2463;49.948;8.472;2023-02-01T01:31:18;6.70;99.90
4896;DHT22;2463;49.948;8.472;2023-02-01T01:33:49;6.70;99.90
4896;DHT22;2463;49.948;8.472;2023-02-01T01:36:16;6.70;99.90
4896;DHT22;2463;49.948;8.472;2023-02-01T01:38:43;6.70;99.90
4896;DHT22;2463;49.948;8.472;2023-02-01T01:41:14;6.70;99.90
4896;DHT22;2463;49.948;8.472;2023-02-01T01:44:02;6.70;99.90
4896;DHT22;2463;49.948;8.472;2023-02-01T01:46:36;6.70;99.90
4896;DHT22;2463;49.948;8.472;2023-02-01T01:49:17;6.70;99.90
4896;DHT22;2463;49.948;8.472;2023-02-01T01:51:51;6.70;99.90
4896;DHT22;2463;49.948;8.472;2023-02-01T01:54:23;6.70;99.90
4896;DHT22;2463;49.948;8.472;2023-02-01T01:56:53;6.70;99.90
4896;DHT22;2463;49.948;8.472;2023-02-01T01:59:23;6.70;99.90
4896;DHT22;2463;49.948;8.472;2023-02-01T02:01:51;6.70;99.90
4896;DHT22;2463;49.948;8.472;2023-02-01T02:04:19;6.70;99.90
4896;DHT22;2463;49.948;8.472;2023-02-01T02:06:56;6.70;99.90
4896;DHT22;2463;49.948;8.472;2023-02-01T02:09:25;6.80;99.90
4896;DHT22;2463;49.948;8.472;2023-02-01T02:11:52;6.70;99.90
4896;DHT22;2463;49.948;8.472;2023-02-01T02:14:20;6.70;99.90
4896;DHT22;2463;49.948;8.472;2023-02-01T02:19:53;6.70;99.90
4896;DHT22;2463;49.948;8.472;2023-02-01T02:28:31;6.70;99.90
4896;DHT22;2463;49.948;8.472;2023-02-01T02:40:01;6.70;99.90
4896;DHT22;2463;49.948;8.472;2023-02-01T02:42:40;6.80;99.90
4896;DHT22;2463;49.948;8.472;2023-02-01T02:45:34;6.90;99.90
4896;DHT22;2463;49.948;8.472;2023-02-01T02:48:33;6.90;99.90
4896;DHT22;2463;49.948;8.472;2023-02-01T02:51:09;6.90;99.90
4896;DHT22;2463;49.948;8.472;2023-02-01T02:54:13;6.90;99.90
4896;DHT22;2463;49.948;8.472;2023-02-01T02:57:03;6.80;99.90
4896;DHT22;2463;49.948;8.472;2023-02-01T02:59:49;6.80;99.90
4896;DHT22;2463;49.948;8.472;2023-02-01T03:02:34;6.80;99.90
4896;DHT22;2463;49.948;8.472;2023-02-01T03:05:20;6.70;99.90
4896;DHT22;2463;49.948;8.472;2023-02-01T03:08:03;6.60;99.90
4896;DHT22;2463;49.948;8.472;2023-02-01T03:13:38;6.60;99.90
4896;DHT22;2463;49.948;8.472;2023-02-01T03:19:03;6.50;99.90
4896;DHT22;2463;49.948;8.472;2023-02-01T03:21:40;6.50;99.90
4896;DHT22;2463;49.948;8.472;2023-02-01T03:24:15;6.50;99.90
4896;DHT22;2463;49.948;8.472;2023-02-01T03:26:51;6.50;99.90
4896;DHT22;2463;49.948;8.472;2023-02-01T03:29:27;6.50;99.90
4896;DHT22;2463;49.948;8.472;2023-02-01T03:31:56;6.50;99.90
4896;DHT22;2463;49.948;8.472;2023-02-01T03:34:23;6.50;99.90
4896;DHT22;2463;49.948;8.472;2023-02-01T03:36:59;6.50;99.90
4896;DHT22;2463;49.948;8.472;2023-02-01T03:42:22;6.50;99.90
4896;DHT22;2463;49.948;8.472;2023-02-01T03:44:57;6.50;99.90
4896;DHT22;2463;49.948;8.472;2023-02-01T03:47:27;6.40;99.90
4896;DHT22;2463;49.948;8.472;2023-02-01T03:50:06;6.40;99.90
4896;DHT22;2463;49.948;8.472;2023-02-01T03:52:45;6.40;99.90
4896;DHT22;2463;49.948;8.472;2023-02-01T03:55:15;6.40;99.90
4896;DHT22;2463;49.948;8.472;2023-02-01T03:57:55;6.40;99.90
4896;DHT22;2463;49.948;8.472;2023-02-01T04:00:25;6.40;99.90
4896;DHT22;2463;49.948;8.472;2023-02-01T04:02:53;6.40;99.90
4896;DHT22;2463;49.948;8.472;2023-02-01T04:05:20;6.40;99.90
4896;DHT22;2463;49.948;8.472;2023-02-01T04:07:47;6.50;99.90
4896;DHT22;2463;49.948;8.472;2023-02-01T04:10:14;6.50;99.90
4896;DHT22;2463;49.948;8.472;2023-02-01T04:12:45;6.50;99.90
4896;DHT22;2463;49.948;8.472;2023-02-01T04:15:11;6.50;99.90
4896;DHT22;2463;49.948;8.472;2023-02-01T04:17:38;6.50;99.90
4896;DHT22;2463;49.948;8.472;2023-02-01T04:20:05;6.50;99.90
4896;DHT22;2463;49.948;8.472;2023-02-01T04:22:32;6.60;99.90
4896;DHT22;2463;49.948;8.472;2023-02-01T04:24:59;6.60;99.90
4896;DHT22;2463;49.948;8.472;2023-02-01T04:27:26;6.60;99.90
4896;DHT22;2463;49.948;8.472;2023-02-01T04:29:52;6.50;99.90
4896;DHT22;2463;49.948;8.472;2023-02-01T04:32:19;6.60;99.90
4896;DHT22;2463;49.948;8.472;2023-02-01T04:34:46;6.60;99.90
4896;DHT22;2463;49.948;8.472;2023-02-01T04:37:13;6.50;99.90
4896;DHT22;2463;49.948;8.472;2023-02-01T04:39:39;6.50;99.90
4896;DHT22;2463;49.948;8.472;2023-02-01T04:42:06;6.50;99.90
4896;DHT22;2463;49.948;8.472;2023-02-01T04:44:33;6.40;99.90
4896;DHT22;2463;49.948;8.472;2023-02-01T04:46:59;6.50;99.90
4896;DHT22;2463;49.948;8.472;2023-02-01T04:49:26;6.60;99.90
4896;DHT22;2463;49.948;8.472;2023-02-01T04:51:53;6.50;99.90
4896;DHT22;2463;49.948;8.472;2023-02-01T04:54:19;6.50;99.90
4896;DHT22;2463;49.948;8.472;2023-02-01T04:56:46;6.50;99.90
4896;DHT22;2463;49.948;8.472;2023-02-01T04:59:13;6.50;99.90
4896;DHT22;2463;49.948;8.472;2023-02-01T05:01:40;6.50;99.90
4896;DHT22;2463;49.948;8.472;2023-02-01T05:04:06;6.60;99.90
4896;DHT22;2463;49.948;8.472;2023-02-01T05:06:33;6.50;99.90
4896;DHT22;2463;49.948;8.472;2023-02-01T05:09:00;6.60;99.90
4896;DHT22;2463;49.948;8.472;2023-02-01T05:11:26;6.60;99.90
4896;DHT22;2463;49.948;8.472;2023-02-01T05:14:11;6.70;99.90
4896;DHT22;2463;49.948;8.472;2023-02-01T05:16:38;6.60;99.90
4896;DHT22;2463;49.948;8.472;2023-02-01T05:19:05;6.60;99.90
4896;DHT22;2463;49.948;8.472;2023-02-01T05:21:31;6.60;99.90
4896;DHT22;2463;49.948;8.472;2023-02-01T05:23:58;6.60;99.90
4896;DHT22;2463;49.948;8.472;2023-02-01T05:26:40;6.50;99.90
4896;DHT22;2463;49.948;8.472;2023-02-01T05:29:08;6.50;99.90
4896;DHT22;2463;49.948;8.472;2023-02-01T05:31:36;6.50;99.90
4896;DHT22;2463;49.948;8.472;2023-02-01T05:34:03;6.40;99.90
4896;DHT22;2463;49.948;8.472;2023-02-01T05:36:31;6.50;99.90
4896;DHT22;2463;49.948;8.472;2023-02-01T05:38:58;6.50;99.90
4896;DHT22;2463;49.948;8.472;2023-02-01T05:41:24;6.40;99.90
4896;DHT22;2463;49.948;8.472;2023-02-01T05:43:51;6.40;99.90
4896;DHT22;2463;49.948;8.472;2023-02-01T05:46:18;6.40;99.90
4896;DHT22;2463;49.948;8.472;2023-02-01T05:48:44;6.40;99.90
4896;DHT22;2463;49.948;8.472;2023-02-01T05:51:11;6.40;99.90
4896;DHT22;2463;49.948;8.472;2023-02-01T05:53:38;6.40;99.90
4896;DHT22;2463;49.948;8.472;2023-02-01T05:56:05;6.50;99.90
4896;DHT22;2463;49.948;8.472;2023-02-01T05:58:32;6.50;99.90
4896;DHT22;2463;49.948;8.472;2023-02-01T06:01:00;6.50;99.90
4896;DHT22;2463;49.948;8.472;2023-02-01T06:03:27;6.50;99.90
4896;DHT22;2463;49.948;8.472;2023-02-01T06:05:54;6.50;99.90
4896;DHT22;2463;49.948;8.472;2023-02-01T06:08:20;6.50;99.90
4896;DHT22;2463;49.948;8.472;2023-02-01T06:10:47;6.40;99.90
4896;DHT22;2463;49.948;8.472;2023-02-01T06:13:14;6.30;99.90
4896;DHT22;2463;49.948;8.472;2023-02-01T06:15:40;6.30;99.90
4896;DHT22;2463;49.948;8.472;2023-02-01T06:18:09;6.20;99.90
4896;DHT22;2463;49.948;8.472;2023-02-01T06:20:36;6.20;99.90
4896;DHT22;2463;49.948;8.472;2023-02-01T06:23:02;6.20;99.90
4896;DHT22;2463;49.948;8.472;2023-02-01T06:25:31;6.20;99.90
4896;DHT22;2463;49.948;8.472;2023-02-01T06:28:00;6.20;99.90
4896;DHT22;2463;49.948;8.472;2023-02-01T06:30:27;6.20;99.90
4896;DHT22;2463;49.948;8.472;2023-02-01T06:32:54;6.20;99.90
4896;DHT22;2463;49.948;8.472;2023-02-01T06:35:21;6.20;99.90
4896;DHT22;2463;49.948;8.472;2023-02-01T06:37:47;6.20;99.90
4896;DHT22;2463;49.948;8.472;2023-02-01T06:40:14;6.70;99.90
4896;DHT22;2463;49.948;8.472;2023-02-01T06:42:41;6.00;99.90
4896;DHT22;2463;49.948;8.472;2023-02-01T06:45:08;5.90;99.90
4896;DHT22;2463;49.948;8.472;2023-02-01T06:47:35;5.90;99.90
4896;DHT22;2463;49.948;8.472;2023-02-01T06:50:01;5.80;99.90
4896;DHT22;2463;49.948;8.472;2023-02-01T06:52:28;5.80;99.90
4896;DHT22;2463;49.948;8.472;2023-02-01T06:54:55;5.80;99.90
4896;DHT22;2463;49.948;8.472;2023-02-01T06:57:22;5.70;99.90
4896;DHT22;2463;49.948;8.472;2023-02-01T06:59:48;5.70;99.90
4896;DHT22;2463;49.948;8.472;2023-02-01T07:02:15;5.70;99.90
4896;DHT22;2463;49.948;8.472;2023-02-01T07:04:42;5.60;99.90
4896;DHT22;2463;49.948;8.472;2023-02-01T07:07:08;5.60;99.90
4896;DHT22;2463;49.948;8.472;2023-02-01T07:09:35;5.60;99.90
4896;DHT22;2463;49.948;8.472;2023-02-01T07:12:02;5.50;99.90
4896;DHT22;2463;49.948;8.472;2023-02-01T07:14:29;5.60;99.90
4896;DHT22;2463;49.948;8.472;2023-02-01T07:16:55;5.60;99.90
4896;DHT22;2463;49.948;8.472;2023-02-01T07:19:22;5.50;99.90
4896;DHT22;2463;49.948;8.472;2023-02-01T07:21:48;5.50;99.90
4896;DHT22;2463;49.948;8.472;2023-02-01T07:24:15;5.50;99.90
4896;DHT22;2463;49.948;8.472;2023-02-01T07:26:42;5.40;99.90
4896;DHT22;2463;49.948;8.472;2023-02-01T07:29:09;5.40;99.90
4896;DHT22;2463;49.948;8.472;2023-02-01T07:31:35;5.30;99.90
4896;DHT22;2463;49.948;8.472;2023-02-01T07:34:02;5.30;99.90
4896;DHT22;2463;49.948;8.472;2023-02-01T07:36:29;5.30;99.90
4896;DHT22;2463;49.948;8.472;2023-02-01T07:38:57;5.30;99.90
4896;DHT22;2463;49.948;8.472;2023-02-01T07:41:23;5.30;99.90
4896;DHT22;2463;49.948;8.472;2023-02-01T07:43:53;5.40;99.90
4896;DHT22;2463;49.948;8.472;2023-02-01T07:46:20;5.40;99.90
4896;DHT22;2463;49.948;8.472;2023-02-01T07:48:46;5.40;99.90
4896;DHT22;2463;49.948;8.472;2023-02-01T07:51:15;5.40;99.90
4896;DHT22;2463;49.948;8.472;2023-02-01T07:53:43;5.50;99.90
4896;DHT22;2463;49.948;8.472;2023-02-01T07:56:15;5.60;99.90
4896;DHT22;2463;49.948;8.472;2023-02-01T07:58:43;5.60;99.90
4896;DHT22;2463;49.948;8.472;2023-02-01T08:01:17;5.70;99.90
4896;DHT22;2463;49.948;8.472;2023-02-01T08:03:48;5.80;99.90
4896;DHT22;2463;49.948;8.472;2023-02-01T08:06:15;5.60;99.90
4896;DHT22;2463;49.948;8.472;2023-02-01T08:08:42;6.00;99.90
4896;DHT22;2463;49.948;8.472;2023-02-01T08:11:11;6.10;99.90
4896;DHT22;2463;49.948;8.472;2023-02-01T08:13:38;6.20;99.90
4896;DHT22;2463;49.948;8.472;2023-02-01T08:16:07;6.30;99.90
4896;DHT22;2463;49.948;8.472;2023-02-01T08:18:35;6.50;99.90
4896;DHT22;2463;49.948;8.472;2023-02-01T08:21:17;6.60;99.90
4896;DHT22;2463;49.948;8.472;2023-02-01T08:23:44;6.70;99.90
4896;DHT22;2463;49.948;8.472;2023-02-01T08:26:17;6.90;99.90
4896;DHT22;2463;49.948;8.472;2023-02-01T08:28:48;6.90;99.90
4896;DHT22;2463;49.948;8.472;2023-02-01T08:31:16;7.00;99.90
4896;DHT22;2463;49.948;8.472;2023-02-01T08:33:47;7.10;99.90
4896;DHT22;2463;49.948;8.472;2023-02-01T08:36:14;7.40;99.90
4896;DHT22;2463;49.948;8.472;2023-02-01T08:38:40;7.90;99.90
4896;DHT22;2463;49.948;8.472;2023-02-01T08:41:09;8.40;99.90
4896;DHT22;2463;49.948;8.472;2023-02-01T08:43:36;8.90;99.90
4896;DHT22;2463;49.948;8.472;2023-02-01T08:46:04;9.60;99.90
4896;DHT22;2463;49.948;8.472;2023-02-01T08:48:32;10.40;99.90
4896;DHT22;2463;49.948;8.472;2023-02-01T08:51:03;10.80;99.90
4896;DHT22;2463;49.948;8.472;2023-02-01T08:53:31;11.10;99.90
4896;DHT22;2463;49.948;8.472;2023-02-01T08:55:58;11.40;99.90
4896;DHT22;2463;49.948;8.472;2023-02-01T08:58:25;11.60;99.90
4896;DHT22;2463;49.948;8.472;2023-02-01T09:00:51;11.60;99.90
4896;DHT22;2463;49.948;8.472;2023-02-01T09:03:18;11.60;99.90
4896;DHT22;2463;49.948;8.472;2023-02-01T09:05:45;11.60;99.90
4896;DHT22;2463;49.948;8.472;2023-02-01T09:08:15;12.00;99.90
4896;DHT22;2463;49.948;8.472;2023-02-01T09:10:42;12.60;99.90
4896;DHT22;2463;49.948;8.472;2023-02-01T09:13:09;13.10;99.90
4896;DHT22;2463;49.948;8.472;2023-02-01T09:15:37;13.40;99.90
4896;DHT22;2463;49.948;8.472;2023-02-01T09:18:03;13.50;99.90
4896;DHT22;2463;49.948;8.472;2023-02-01T09:20:30;14.20;99.90
4896;DHT22;2463;49.948;8.472;2023-02-01T09:22:57;14.60;99.90
4896;DHT22;2463;49.948;8.472;2023-02-01T09:25:24;15.40;99.90
4896;DHT22;2463;49.948;8.472;2023-02-01T09:27:50;16.50;99.90
4896;DHT22;2463;49.948;8.472;2023-02-01T09:30:17;16.90;99.90
4896;DHT22;2463;49.948;8.472;2023-02-01T09:32:44;16.60;99.90
4896;DHT22;2463;49.948;8.472;2023-02-01T09:35:10;16.00;99.90
4896;DHT22;2463;49.948;8.472;2023-02-01T09:37:37;15.10;99.90
4896;DHT22;2463;49.948;8.472;2023-02-01T09:40:04;14.10;99.90
4896;DHT22;2463;49.948;8.472;2023-02-01T09:48:20;11.50;99.90
4896;DHT22;2463;49.948;8.472;2023-02-01T09:50:53;10.80;99.90
4896;DHT22;2463;49.948;8.472;2023-02-01T09:53:23;10.40;99.90
4896;DHT22;2463;49.948;8.472;2023-02-01T09:55:55;10.10;99.90
4896;DHT22;2463;49.948;8.472;2023-02-01T10:01:19;9.60;99.90
4896;DHT22;2463;49.948;8.472;2023-02-01T10:03:46;9.50;99.90
4896;DHT22;2463;49.948;8.472;2023-02-01T10:06:28;9.50;99.90
4896;DHT22;2463;49.948;8.472;2023-02-01T10:12:04;9.70;99.90
4896;DHT22;2463;49.948;8.472;2023-02-01T10:14:48;10.30;99.90
4896;DHT22;2463;49.948;8.472;2023-02-01T10:22:48;12.60;99.90
4896;DHT22;2463;49.948;8.472;2023-02-01T10:25:44;12.40;99.90
4896;DHT22;2463;49.948;8.472;2023-02-01T10:28:16;11.70;99.90
4896;DHT22;2463;49.948;8.472;2023-02-01T10:30:46;11.70;99.90
4896;DHT22;2463;49.948;8.472;2023-02-01T10:33:17;12.30;99.90
4896;DHT22;2463;49.948;8.472;2023-02-01T10:36:03;13.00;99.90
4896;DHT22;2463;49.948;8.472;2023-02-01T10:38:32;12.50;99.90
4896;DHT22;2463;49.948;8.472;2023-02-01T10:41:08;11.80;99.90
4896;DHT22;2463;49.948;8.472;2023-02-01T10:43:38;11.30;99.90
4896;DHT22;2463;49.948;8.472;2023-02-01T10:46:07;10.80;99.90
4896;DHT22;2463;49.948;8.472;2023-02-01T10:48:35;10.40;99.90
4896;DHT22;2463;49.948;8.472;2023-02-01T10:51:10;10.00;99.90
4896;DHT22;2463;49.948;8.472;2023-02-01T10:53:50;9.80;99.90
4896;DHT22;2463;49.948;8.472;2023-02-01T10:56:24;9.70;99.90
4896;DHT22;2463;49.948;8.472;2023-02-01T10:59:03;10.10;99.90
4896;DHT22;2463;49.948;8.472;2023-02-01T11:01:37;10.40;99.90
4896;DHT22;2463;49.948;8.472;2023-02-01T11:04:10;10.20;99.90
4896;DHT22;2463;49.948;8.472;2023-02-01T11:06:44;10.00;99.90
4896;DHT22;2463;49.948;8.472;2023-02-01T11:09:22;9.60;99.90
4896;DHT22;2463;49.948;8.472;2023-02-01T11:16:59;9.00;99.90
4896;DHT22;2463;49.948;8.472;2023-02-01T11:19:28;9.00;99.90
4896;DHT22;2463;49.948;8.472;2023-02-01T11:21:57;8.80;99.90
4896;DHT22;2463;49.948;8.472;2023-02-01T11:24:33;8.70;99.90
4896;DHT22;2463;49.948;8.472;2023-02-01T11:27:03;8.60;99.90
4896;DHT22;2463;49.948;8.472;2023-02-01T11:29:41;8.50;99.90
4896;DHT22;2463;49.948;8.472;2023-02-01T11:32:11;8.50;99.90
4896;DHT22;2463;49.948;8.472;2023-02-01T11:39:54;8.40;99.90
4896;DHT22;2463;49.948;8.472;2023-02-01T11:42:21;8.40;99.90
4896;DHT22;2463;49.948;8.472;2023-02-01T11:44:48;8.30;99.90
4896;DHT22;2463;49.948;8.472;2023-02-01T11:47:29;8.30;99.90
4896;DHT22;2463;49.948;8.472;2023-02-01T11:50:00;8.40;99.90
4896;DHT22;2463;49.948;8.472;2023-02-01T11:55:32;8.30;99.90
4896;DHT22;2463;49.948;8.472;2023-02-01T11:58:18;8.30;99.90
4896;DHT22;2463;49.948;8.472;2023-02-01T12:11:43;8.10;99.90
4896;DHT22;2463;49.948;8.472;2023-02-01T12:27:55;8.30;99.90
4896;DHT22;2463;49.948;8.472;2023-02-01T12:30:41;8.20;99.90
4896;DHT22;2463;49.948;8.472;2023-02-01T12:33:23;8.20;99.90
4896;DHT22;2463;49.948;8.472;2023-02-01T12:41:47;8.20;99.90
4896;DHT22;2463;49.948;8.472;2023-02-01T12:44:27;8.20;99.90
4896;DHT22;2463;49.948;8.472;2023-02-01T12:47:06;8.20;99.90
4896;DHT22;2463;49.948;8.472;2023-02-01T12:52:39;8.10;99.90
4896;DHT22;2463;49.948;8.472;2023-02-01T12:55:28;8.10;99.90
4896;DHT22;2463;49.948;8.472;2023-02-01T12:58:12;8.20;99.90
4896;DHT22;2463;49.948;8.472;2023-02-01T13:00:44;8.30;99.90
4896;DHT22;2463;49.948;8.472;2023-02-01T13:03:29;8.30;99.90
4896;DHT22;2463;49.948;8.472;2023-02-01T13:06:15;8.30;99.90
4896;DHT22;2463;49.948;8.472;2023-02-01T13:08:45;8.30;99.90
4896;DHT22;2463;49.948;8.472;2023-02-01T13:11:22;8.30;99.90
4896;DHT22;2463;49.948;8.472;2023-02-01T13:14:22;8.30;99.90
4896;DHT22;2463;49.948;8.472;2023-02-01T13:16:54;8.30;99.90
4896;DHT22;2463;49.948;8.472;2023-02-01T13:19:52;8.30;99.90
4896;DHT22;2463;49.948;8.472;2023-02-01T13:22:25;8.30;99.90
4896;DHT22;2463;49.948;8.472;2023-02-01T13:24:56;8.40;99.90
4896;DHT22;2463;49.948;8.472;2023-02-01T13:27:27;8.30;99.90
4896;DHT22;2463;49.948;8.472;2023-02-01T13:44:59;8.50;99.90
4896;DHT22;2463;49.948;8.472;2023-02-01T13:47:32;8.60;99.90
4896;DHT22;2463;49.948;8.472;2023-02-01T13:53:00;8.70;99.90
4896;DHT22;2463;49.948;8.472;2023-02-01T13:55:36;8.80;99.90
4896;DHT22;2463;49.948;8.472;2023-02-01T14:00:33;8.80;99.90
4896;DHT22;2463;49.948;8.472;2023-02-01T14:10:48;8.70;99.90
4896;DHT22;2463;49.948;8.472;2023-02-01T14:13:39;8.70;99.90
4896;DHT22;2463;49.948;8.472;2023-02-01T14:21:30;8.70;99.90
4896;DHT22;2463;49.948;8.472;2023-02-01T14:34:34;9.00;99.90
4896;DHT22;2463;49.948;8.472;2023-02-01T14:37:05;9.20;99.90
4896;DHT22;2463;49.948;8.472;2023-02-01T14:53:10;9.70;99.90
4896;DHT22;2463;49.948;8.472;2023-02-01T14:55:53;9.60;99.90
4896;DHT22;2463;49.948;8.472;2023-02-01T15:01:34;9.50;99.90
4896;DHT22;2463;49.948;8.472;2023-02-01T15:04:16;9.50;99.90
4896;DHT22;2463;49.948;8.472;2023-02-01T15:06:57;9.40;99.90
4896;DHT22;2463;49.948;8.472;2023-02-01T15:09:28;9.40;99.90
4896;DHT22;2463;49.948;8.472;2023-02-01T15:12:08;9.30;99.90
4896;DHT22;2463;49.948;8.472;2023-02-01T15:14:44;9.30;99.90
4896;DHT22;2463;49.948;8.472;2023-02-01T15:17:21;9.20;99.90
4896;DHT22;2463;49.948;8.472;2023-02-01T15:19:56;9.00;99.90
4896;DHT22;2463;49.948;8.472;2023-02-01T15:22:24;8.90;99.90
4896;DHT22;2463;49.948;8.472;2023-02-01T15:24:56;8.90;99.90
4896;DHT22;2463;49.948;8.472;2023-02-01T15:27:24;8.90;99.90
4896;DHT22;2463;49.948;8.472;2023-02-01T15:29:51;8.90;99.90
4896;DHT22;2463;49.948;8.472;2023-02-01T15:32:38;8.80;99.90
4896;DHT22;2463;49.948;8.472;2023-02-01T15:35:05;8.80;99.90
4896;DHT22;2463;49.948;8.472;2023-02-01T15:37:52;8.90;99.90
4896;DHT22;2463;49.948;8.472;2023-02-01T15:40:20;8.80;99.90
4896;DHT22;2463;49.948;8.472;2023-02-01T15:42:53;8.80;99.90
4896;DHT22;2463;49.948;8.472;2023-02-01T15:45:25;8.80;99.90
4896;DHT22;2463;49.948;8.472;2023-02-01T15:47:53;8.80;99.90
4896;DHT22;2463;49.948;8.472;2023-02-01T15:50:21;8.80;99.90
4896;DHT22;2463;49.948;8.472;2023-02-01T15:52:52;8.70;99.90
4896;DHT22;2463;49.948;8.472;2023-02-01T15:55:25;8.70;99.90
4896;DHT22;2463;49.948;8.472;2023-02-01T15:57:56;8.70;99.90
4896;DHT22;2463;49.948;8.472;2023-02-01T16:00:28;8.70;99.90
4896;DHT22;2463;49.948;8.472;2023-02-01T16:02:59;8.70;99.90
4896;DHT22;2463;49.948;8.472;2023-02-01T16:08:11;8.60;99.90
4896;DHT22;2463;49.948;8.472;2023-02-01T16:10:48;8.60;99.90
4896;DHT22;2463;49.948;8.472;2023-02-01T16:13:16;8.50;99.90
4896;DHT22;2463;49.948;8.472;2023-02-01T16:15:44;8.50;99.90
4896;DHT22;2463;49.948;8.472;2023-02-01T16:18:12;8.50;99.90
4896;DHT22;2463;49.948;8.472;2023-02-01T16:20:42;8.50;99.90
4896;DHT22;2463;49.948;8.472;2023-02-01T16:23:10;8.50;99.90
4896;DHT22;2463;49.948;8.472;2023-02-01T16:25:37;7.90;99.90
4896;DHT22;2463;49.948;8.472;2023-02-01T16:28:04;8.50;99.90
4896;DHT22;2463;49.948;8.472;2023-02-01T16:30:32;8.60;99.90
4896;DHT22;2463;49.948;8.472;2023-02-01T16:33:00;8.40;99.90
4896;DHT22;2463;49.948;8.472;2023-02-01T16:35:34;8.50;99.90
4896;DHT22;2463;49.948;8.472;2023-02-01T16:38:14;8.50;99.90
4896;DHT22;2463;49.948;8.472;2023-02-01T16:40:42;8.50;99.90
4896;DHT22;2463;49.948;8.472;2023-02-01T16:43:19;8.50;99.90
4896;DHT22;2463;49.948;8.472;2023-02-01T16:45:47;8.40;99.90
4896;DHT22;2463;49.948;8.472;2023-02-01T16:48:22;8.40;99.90
4896;DHT22;2463;49.948;8.472;2023-02-01T16:50:57;8.40;99.90
4896;DHT22;2463;49.948;8.472;2023-02-01T16:53:25;8.30;99.90
4896;DHT22;2463;49.948;8.472;2023-02-01T16:55:54;8.30;99.90
4896;DHT22;2463;49.948;8.472;2023-02-01T16:58:21;8.20;99.90
4896;DHT22;2463;49.948;8.472;2023-02-01T17:00:48;8.10;99.90
4896;DHT22;2463;49.948;8.472;2023-02-01T17:03:15;8.00;99.90
4896;DHT22;2463;49.948;8.472;2023-02-01T17:05:49;7.90;99.90
4896;DHT22;2463;49.948;8.472;2023-02-01T17:08:27;7.90;99.90
4896;DHT22;2463;49.948;8.472;2023-02-01T17:10:54;7.80;99.90
4896;DHT22;2463;49.948;8.472;2023-02-01T17:13:21;7.80;99.90
4896;DHT22;2463;49.948;8.472;2023-02-01T17:15:52;7.70;99.90
4896;DHT22;2463;49.948;8.472;2023-02-01T17:18:20;7.80;99.90
4896;DHT22;2463;49.948;8.472;2023-02-01T17:20:47;7.70;99.90
4896;DHT22;2463;49.948;8.472;2023-02-01T17:23:15;7.70;99.90
4896;DHT22;2463;49.948;8.472;2023-02-01T17:25:42;7.70;99.90
4896;DHT22;2463;49.948;8.472;2023-02-01T17:28:09;7.70;99.90
4896;DHT22;2463;49.948;8.472;2023-02-01T17:30:37;7.70;99.90
4896;DHT22;2463;49.948;8.472;2023-02-01T17:35:48;7.60;99.90
4896;DHT22;2463;49.948;8.472;2023-02-01T17:38:15;7.60;99.90
4896;DHT22;2463;49.948;8.472;2023-02-01T17:40:42;7.60;99.90
4896;DHT22;2463;49.948;8.472;2023-02-01T17:43:15;7.50;99.90
4896;DHT22;2463;49.948;8.472;2023-02-01T17:46:01;7.60;99.90
4896;DHT22;2463;49.948;8.472;2023-02-01T17:48:29;7.60;99.90
4896;DHT22;2463;49.948;8.472;2023-02-01T17:50:56;7.60;99.90
4896;DHT22;2463;49.948;8.472;2023-02-01T17:53:27;7.60;99.90
4896;DHT22;2463;49.948;8.472;2023-02-01T17:55:54;7.60;99.90
4896;DHT22;2463;49.948;8.472;2023-02-01T17:58:24;7.60;99.90
4896;DHT22;2463;49.948;8.472;2023-02-01T18:00:52;7.60;99.90
4896;DHT22;2463;49.948;8.472;2023-02-01T18:03:27;7.60;99.90
4896;DHT22;2463;49.948;8.472;2023-02-01T18:05:56;7.60;99.90
4896;DHT22;2463;49.948;8.472;2023-02-01T18:08:25;7.50;99.90
4896;DHT22;2463;49.948;8.472;2023-02-01T18:10:55;7.50;99.90
4896;DHT22;2463;49.948;8.472;2023-02-01T18:13:22;7.40;99.90
4896;DHT22;2463;49.948;8.472;2023-02-01T18:15:48;7.30;99.90
4896;DHT22;2463;49.948;8.472;2023-02-01T18:18:15;7.20;99.90
4896;DHT22;2463;49.948;8.472;2023-02-01T18:20:43;7.20;99.90
4896;DHT22;2463;49.948;8.472;2023-02-01T18:25:47;7.20;99.90
4896;DHT22;2463;49.948;8.472;2023-02-01T18:28:14;7.30;99.90
4896;DHT22;2463;49.948;8.472;2023-02-01T18:30:43;7.30;99.90
4896;DHT22;2463;49.948;8.472;2023-02-01T18:33:15;7.30;99.90
4896;DHT22;2463;49.948;8.472;2023-02-01T18:35:42;7.30;99.90
4896;DHT22;2463;49.948;8.472;2023-02-01T18:38:10;7.30;99.90
4896;DHT22;2463;49.948;8.472;2023-02-01T18:40:51;7.20;99.90
4896;DHT22;2463;49.948;8.472;2023-02-01T18:43:19;7.30;99.90
4896;DHT22;2463;49.948;8.472;2023-02-01T18:45:46;7.30;99.90
4896;DHT22;2463;49.948;8.472;2023-02-01T18:48:16;7.20;99.90
4896;DHT22;2463;49.948;8.472;2023-02-01T18:50:44;7.30;99.90
4896;DHT22;2463;49.948;8.472;2023-02-01T18:53:14;7.20;99.90
4896;DHT22;2463;49.948;8.472;2023-02-01T18:55:41;7.30;99.90
4896;DHT22;2463;49.948;8.472;2023-02-01T18:58:11;7.30;99.90
4896;DHT22;2463;49.948;8.472;2023-02-01T19:00:38;7.30;99.90
4896;DHT22;2463;49.948;8.472;2023-02-01T19:03:05;7.20;99.90
4896;DHT22;2463;49.948;8.472;2023-02-01T19:05:32;7.30;99.90
4896;DHT22;2463;49.948;8.472;2023-02-01T19:07:58;7.30;99.90
4896;DHT22;2463;49.948;8.472;2023-02-01T19:10:25;7.30;99.90
4896;DHT22;2463;49.948;8.472;2023-02-01T19:12:53;7.30;99.90
4896;DHT22;2463;49.948;8.472;2023-02-01T19:15:21;7.30;99.90
4896;DHT22;2463;49.948;8.472;2023-02-01T19:17:50;7.30;99.90